CYFT

Makkovik Airport

Makkovik, Canada
METAR CYFT 222000Z 02018G31KT 1 1/4SM -SN OVC004 00/00 A2970 RMK ST8 SN WET LAST OBS/NEXT230900 UTC SLP062
Observed Flight Rules
Oct-22 @ 20:00 UTC (6 hours ago) Instrument Flight Rules
Wind Visibility Clouds Conditions
20° at 18 knots
 Gusting to 31 knots
1 1/4 miles
  • Overcast at 400' AGL
  • Light Snow
Temperatures Readings
Current 0°C / 32°F
Dewpoint 0°C / 32°F
Humidity 100%
Altimeter 29.7" Hg
Pressure 1006.2 hPa
Elevation 71
METAR CYFT 222000Z 02018G31KT 1 1/4SM -SN OVC004 00/00 A2970 RMK ST8 SN WET LAST OBS/NEXT230900 UTC SLP062
Observed Flight Rules
Oct-22 @ 20:00 UTC
(6 hours ago)
LIFR
Wind Visibility
20° at 18 knots
 Gusting to 31 knots
1 1/4 miles
Clouds
  • Overcast at 400' AGL
Conditions
  • Light Snow
Temperature Dewpoint
0°C / 32°F 0°C / 32°F
Humidity Altimeter Pressure
100% 29.7" Hg 1006.2 hPa